Terminal Aerodrome Forecast
Issued by NWS Jacksonville, FL

Home | Current Version | Previous Version | Text Only | Print | Product List | Glossary On
Versions: 1 2 3 4 5 6 7 8 9 10 11 12 13
660
FTUS42 KJAX 041741
TAFGNV
TAF
KGNV 041741Z 0418/0518 13010KT P6SM SCT040 BKN080
     FM042300 15007KT P6SM BKN040 BKN080
     FM050800 VRB04KT 3SM BR SCT003 BKN015
     FM051300 19011KT P6SM VCSH SCT007 BKN025=

USA.gov is the U.S. government's official web portal to all federal, state and local government web resources and services.